createdAt,value
2019-05-06T00:01:26.416Z,6.10
2019-05-06T00:05:47.229Z,6.11
2019-05-06T00:10:21.684Z,6.14
2019-05-06T00:14:43.666Z,6.05
2019-05-06T00:19:04.812Z,6.01
2019-05-06T00:23:26.096Z,6.06
2019-05-06T00:27:46.829Z,6.10
2019-05-06T00:32:07.398Z,6.19
2019-05-06T00:36:28.461Z,6.23
2019-05-06T00:40:48.796Z,6.16
2019-05-06T00:45:09.086Z,6.31
2019-05-06T00:49:29.765Z,6.32
2019-05-06T00:53:50.681Z,6.34
2019-05-06T00:58:10.844Z,6.34
2019-05-06T01:02:31.416Z,6.29
2019-05-06T01:06:51.793Z,6.26
2019-05-06T01:11:14.277Z,6.28
2019-05-06T01:15:34.587Z,6.21
2019-05-06T01:19:54.683Z,6.12
2019-05-06T01:24:15.407Z,6.03
2019-05-06T01:28:35.880Z,6.07
2019-05-06T01:32:56.145Z,6.01
2019-05-06T01:37:16.523Z,6.01
2019-05-06T01:41:37.384Z,5.95
2019-05-06T01:45:57.944Z,6.00
2019-05-06T01:50:18.721Z,6.02
2019-05-06T01:54:38.999Z,5.93
2019-05-06T01:58:59.577Z,6.00
2019-05-06T02:03:20.308Z,5.95
2019-05-06T02:07:40.451Z,5.92
2019-05-06T02:12:00.751Z,5.94
2019-05-06T02:16:21.311Z,5.91
2019-05-06T02:20:41.740Z,5.86
2019-05-06T02:25:04.301Z,5.90
2019-05-06T02:29:24.780Z,5.94
2019-05-06T02:33:45.051Z,5.95
2019-05-06T02:38:05.504Z,5.92
2019-05-06T02:42:25.963Z,5.82
2019-05-06T02:46:46.519Z,5.88
2019-05-06T02:51:06.929Z,5.93
2019-05-06T02:55:27.774Z,5.83
2019-05-06T02:59:47.979Z,5.78
2019-05-06T03:04:08.321Z,5.72
2019-05-06T03:08:28.986Z,5.64
2019-05-06T03:12:50.042Z,5.59
2019-05-06T03:17:10.303Z,5.56
2019-05-06T03:21:36.670Z,5.51
2019-05-06T03:25:53.573Z,5.57
2019-05-06T03:30:16.662Z,5.57
2019-05-06T03:34:57.975Z,5.53
2019-05-06T03:38:59.578Z,5.39
2019-05-06T03:43:23.107Z,5.44
2019-05-06T03:47:43.616Z,5.36
2019-05-06T03:52:04.082Z,5.32
2019-05-06T03:56:25.361Z,5.29
2019-05-06T04:00:46.474Z,5.32
2019-05-06T04:05:07.362Z,5.29
2019-05-06T04:09:27.633Z,5.42
2019-05-06T04:13:47.956Z,5.45
2019-05-06T04:18:08.696Z,5.50
2019-05-06T04:22:29.103Z,5.42
2019-05-06T04:26:53.378Z,5.40
2019-05-06T04:31:13.620Z,5.45
2019-05-06T04:35:34.824Z,5.46
2019-05-06T04:39:55.178Z,5.50
2019-05-06T04:44:17.185Z,5.68
2019-05-06T04:48:37.682Z,5.63
2019-05-06T04:52:58.966Z,5.70
2019-05-06T04:57:19.719Z,5.78
2019-05-06T05:01:40.190Z,5.94
2019-05-06T05:06:03.020Z,6.08
2019-05-06T05:10:23.670Z,6.15
2019-05-06T05:14:44.604Z,6.24
2019-05-06T05:19:04.968Z,6.28
2019-05-06T05:23:25.514Z,6.43
2019-05-06T05:27:46.617Z,6.54
2019-05-06T05:32:06.835Z,6.62
2019-05-06T05:36:27.626Z,6.71
2019-05-06T05:40:48.667Z,6.75
2019-05-06T05:45:09.041Z,6.87
2019-05-06T05:49:32.336Z,6.95
2019-05-06T05:53:53.109Z,7.02
2019-05-06T05:58:14.306Z,7.10
2019-05-06T06:02:35.059Z,7.16
2019-05-06T06:06:56.209Z,7.11
2019-05-06T06:11:17.094Z,7.11
2019-05-06T06:15:38.106Z,7.28
2019-05-06T06:19:59.192Z,7.38
2019-05-06T06:24:22.535Z,7.40
2019-05-06T06:28:42.927Z,7.56
2019-05-06T06:33:03.452Z,7.62
2019-05-06T06:37:25.448Z,7.75
2019-05-06T06:41:47.028Z,7.84
2019-05-06T06:46:09.400Z,7.92
2019-05-06T06:50:30.140Z,8.11
2019-05-06T06:54:52.737Z,8.24
2019-05-06T06:59:15.146Z,8.45
2019-05-06T07:03:37.069Z,8.46
2019-05-06T07:07:57.660Z,8.40
2019-05-06T07:12:18.515Z,8.51
2019-05-06T07:16:42.871Z,8.69
2019-05-06T07:21:05.403Z,8.72
2019-05-06T07:25:26.391Z,8.83
2019-05-06T07:29:48.066Z,8.87
2019-05-06T07:34:12.009Z,8.83
2019-05-06T07:38:33.340Z,8.96
2019-05-06T07:42:53.802Z,9.01
2019-05-06T07:47:15.912Z,9.16
2019-05-06T07:51:36.338Z,9.29
2019-05-06T07:55:57.601Z,9.32
2019-05-06T08:00:19.788Z,9.33
2019-05-06T08:04:42.093Z,9.46
2019-05-06T08:09:08.256Z,9.56
2019-05-06T08:13:28.899Z,9.56
2019-05-06T08:17:52.360Z,9.53
2019-05-06T08:22:13.632Z,9.44
2019-05-06T08:26:34.880Z,9.56
2019-05-06T08:30:55.951Z,9.55
2019-05-06T08:35:16.868Z,9.59
2019-05-06T08:39:38.160Z,9.54
2019-05-06T08:43:59.068Z,9.46
2019-05-06T08:48:19.545Z,9.56
2019-05-06T08:52:42.457Z,9.93
2019-05-06T08:57:02.728Z,10.35
2019-05-06T09:01:23.512Z,10.53
2019-05-06T09:05:44.190Z,10.38
2019-05-06T09:10:07.446Z,10.38
2019-05-06T09:14:28.332Z,10.76
2019-05-06T09:18:48.533Z,11.17
2019-05-06T09:23:12.284Z,11.61
2019-05-06T09:27:32.804Z,11.63
2019-05-06T09:31:53.594Z,11.88
2019-05-06T09:36:14.469Z,11.98
2019-05-06T09:40:35.547Z,11.94
2019-05-06T09:44:55.997Z,11.95
2019-05-06T09:49:16.608Z,11.95
2019-05-06T09:53:38.246Z,12.42
2019-05-06T09:57:59.829Z,12.91
2019-05-06T10:02:23.078Z,12.91
2019-05-06T10:06:55.782Z,12.75
2019-05-06T10:11:06.595Z,12.23
2019-05-06T10:15:27.282Z,11.17
2019-05-06T10:19:47.524Z,11.17
2019-05-06T10:24:08.320Z,10.93
2019-05-06T10:28:29.354Z,10.83
2019-05-06T10:32:50.164Z,10.80
2019-05-06T10:37:19.726Z,10.89
2019-05-06T10:41:44.409Z,11.12
2019-05-06T10:46:06.119Z,11.32
2019-05-06T10:50:26.593Z,11.43
2019-05-06T10:54:47.136Z,11.43
2019-05-06T10:59:08.211Z,11.87
2019-05-06T11:03:28.952Z,12.27
2019-05-06T11:07:52.165Z,12.27
2019-05-06T11:12:12.565Z,12.39
2019-05-06T11:16:34.141Z,12.69
2019-05-06T11:20:56.319Z,12.81
2019-05-06T11:25:17.198Z,12.83
2019-05-06T11:29:38.207Z,12.61
2019-05-06T11:33:59.446Z,12.21
2019-05-06T11:38:20.016Z,11.52
2019-05-06T11:42:40.198Z,11.52
2019-05-06T11:47:03.231Z,11.32
2019-05-06T11:51:23.356Z,10.92
2019-05-06T11:55:43.793Z,10.85
2019-05-06T12:00:05.063Z,10.88
2019-05-06T12:04:25.483Z,11.11
2019-05-06T12:08:46.318Z,11.37
2019-05-06T12:13:07.124Z,11.68
2019-05-06T12:17:28.644Z,11.91
2019-05-06T12:21:49.784Z,12.15
2019-05-06T12:26:13.061Z,12.28
2019-05-06T12:30:33.368Z,12.39
2019-05-06T12:34:53.668Z,12.61
2019-05-06T12:39:16.039Z,12.78
2019-05-06T12:43:36.344Z,12.93
2019-05-06T12:47:56.868Z,12.85
2019-05-06T12:52:17.423Z,12.92
2019-05-06T12:56:38.589Z,12.92
2019-05-06T13:00:58.645Z,12.95
2019-05-06T13:05:19.025Z,12.74
2019-05-06T13:09:42.491Z,12.78
2019-05-06T13:14:04.207Z,12.63
2019-05-06T13:18:25.278Z,12.57
2019-05-06T13:22:46.352Z,12.46
2019-05-06T13:27:08.339Z,12.63
2019-05-06T13:31:28.668Z,12.89
2019-05-06T13:35:49.876Z,13.12
2019-05-06T13:40:10.823Z,13.03
2019-05-06T13:44:32.249Z,12.77
2019-05-06T13:48:57.307Z,12.83
2019-05-06T13:53:16.379Z,12.93
2019-05-06T13:57:39.357Z,12.88
2019-05-06T14:02:07.201Z,12.60
2019-05-06T14:06:28.436Z,12.45
2019-05-06T14:10:59.023Z,12.84
2019-05-06T14:15:12.504Z,13.00
2019-05-06T14:19:34.287Z,13.44
2019-05-06T14:23:55.023Z,13.51
2019-05-06T14:28:16.286Z,13.82
2019-05-06T14:32:37.270Z,14.43
2019-05-06T14:36:58.643Z,14.94
2019-05-06T14:41:19.025Z,15.02
2019-05-06T14:45:42.224Z,14.59
2019-05-06T14:50:04.013Z,14.69
2019-05-06T14:54:25.267Z,14.21
2019-05-06T14:58:45.507Z,14.13
2019-05-06T15:03:06.540Z,14.11
2019-05-06T15:07:26.728Z,14.13
2019-05-06T15:11:48.283Z,14.07
2019-05-06T15:16:09.346Z,14.29
2019-05-06T15:20:30.486Z,13.91
2019-05-06T15:24:53.538Z,13.73
2019-05-06T15:29:18.211Z,13.39
2019-05-06T15:33:40.235Z,13.24
2019-05-06T15:38:02.256Z,13.06
2019-05-06T15:42:23.429Z,12.81
2019-05-06T15:46:45.397Z,12.57
2019-05-06T15:51:05.559Z,12.30
2019-05-06T15:55:28.431Z,12.06
2019-05-06T15:59:48.588Z,12.00
2019-05-06T16:04:08.971Z,11.78
2019-05-06T16:08:29.554Z,11.82
2019-05-06T16:12:52.974Z,11.70
2019-05-06T16:17:15.217Z,11.04
2019-05-06T16:21:35.941Z,10.57
2019-05-06T16:25:56.370Z,10.29
2019-05-06T16:30:17.813Z,10.17
2019-05-06T16:34:38.536Z,9.95
2019-05-06T16:38:59.496Z,9.86
2019-05-06T16:43:22.143Z,9.80
2019-05-06T16:47:44.814Z,9.74
2019-05-06T16:52:05.572Z,9.62
2019-05-06T16:56:27.213Z,9.19
2019-05-06T17:00:48.178Z,9.42
2019-05-06T17:05:08.941Z,9.38
2019-05-06T17:09:29.710Z,9.46
2019-05-06T17:13:51.874Z,9.61
2019-05-06T17:18:12.416Z,9.72
2019-05-06T17:22:33.132Z,9.80
2019-05-06T17:26:56.264Z,9.81
2019-05-06T17:31:16.291Z,9.77
2019-05-06T17:35:37.128Z,9.77
2019-05-06T17:40:08.035Z,9.89
2019-05-06T17:44:22.798Z,9.87
2019-05-06T17:48:43.607Z,9.91
2019-05-06T17:53:04.355Z,9.92
2019-05-06T17:57:25.269Z,9.82
2019-05-06T18:01:46.429Z,9.70
2019-05-06T18:06:13.674Z,9.77
2019-05-06T18:10:29.963Z,9.68
2019-05-06T18:14:53.189Z,9.71
2019-05-06T18:19:13.439Z,9.63
2019-05-06T18:23:34.467Z,9.61
2019-05-06T18:27:55.575Z,9.59
2019-05-06T18:32:16.139Z,9.56
2019-05-06T18:36:37.145Z,9.53
2019-05-06T18:40:58.129Z,9.53
2019-05-06T18:45:18.663Z,9.49
2019-05-06T18:49:38.849Z,9.49
2019-05-06T18:54:00.055Z,9.36
2019-05-06T18:58:22.349Z,9.39
2019-05-06T19:02:42.986Z,9.34
2019-05-06T19:07:10.700Z,9.30
2019-05-06T19:11:26.035Z,9.31
2019-05-06T19:15:46.821Z,9.28
2019-05-06T19:20:07.616Z,9.21
2019-05-06T19:24:27.917Z,9.16
2019-05-06T19:28:48.828Z,9.12
2019-05-06T19:33:12.385Z,9.05
2019-05-06T19:37:33.376Z,9.08
2019-05-06T19:41:54.006Z,9.00
2019-05-06T19:46:15.013Z,9.00
2019-05-06T19:50:36.884Z,9.00
2019-05-06T19:54:57.113Z,8.94
2019-05-06T19:59:17.515Z,8.90
2019-05-06T20:03:39.202Z,8.90
2019-05-06T20:07:59.630Z,8.93
2019-05-06T20:12:20.568Z,8.92
2019-05-06T20:16:41.993Z,8.95
2019-05-06T20:21:02.849Z,8.93
2019-05-06T20:25:23.485Z,9.00
2019-05-06T20:29:44.075Z,8.90
2019-05-06T20:34:05.934Z,8.92
2019-05-06T20:38:26.798Z,8.94
2019-05-06T20:42:47.697Z,8.92
2019-05-06T20:47:08.334Z,8.90
2019-05-06T20:51:29.084Z,8.82
2019-05-06T20:55:53.046Z,8.85
2019-05-06T21:00:14.239Z,8.80
2019-05-06T21:04:34.658Z,8.74
2019-05-06T21:08:55.170Z,8.69
2019-05-06T21:13:31.411Z,8.71
2019-05-06T21:17:46.054Z,8.68
2019-05-06T21:22:07.909Z,8.65
2019-05-06T21:26:28.661Z,8.57
2019-05-06T21:30:49.466Z,8.66
2019-05-06T21:35:12.555Z,8.57
2019-05-06T21:39:34.049Z,8.57
2019-05-06T21:43:54.306Z,8.52
2019-05-06T21:48:14.827Z,8.53
2019-05-06T21:52:39.571Z,8.49
2019-05-06T21:56:58.632Z,8.41
2019-05-06T22:01:22.042Z,8.42
2019-05-06T22:05:43.144Z,8.34
2019-05-06T22:10:04.266Z,8.29
2019-05-06T22:14:24.973Z,8.25
2019-05-06T22:18:45.678Z,8.22
2019-05-06T22:23:06.837Z,8.22
2019-05-06T22:27:28.140Z,8.23
2019-05-06T22:31:48.775Z,8.19
2019-05-06T22:36:10.077Z,8.23
2019-05-06T22:40:32.733Z,8.81
2019-05-06T22:44:53.681Z,8.48
2019-05-06T22:49:14.678Z,8.32
2019-05-06T22:53:35.164Z,8.29
2019-05-06T22:57:55.940Z,8.22
2019-05-06T23:02:16.607Z,8.20
2019-05-06T23:06:37.062Z,8.23
2019-05-06T23:10:58.163Z,8.24
2019-05-06T23:15:18.603Z,8.23
2019-05-06T23:19:39.827Z,8.20
2019-05-06T23:24:02.158Z,8.22
2019-05-06T23:28:22.762Z,8.15
2019-05-06T23:32:43.422Z,8.17
2019-05-06T23:37:22.986Z,8.07
2019-05-06T23:42:22.700Z,8.00
2019-05-06T23:47:19.425Z,8.00
2019-05-06T23:52:16.753Z,7.84
2019-05-06T23:56:39.305Z,7.85
